sensor_id;sensor_type;location;lat;lon;timestamp;temperature;humidity
3860;DHT22;1945;52.036;8.614;2023-01-10T00:00:45;6.80;99.90
3860;DHT22;1945;52.036;8.614;2023-01-10T00:03:12;6.40;99.90
3860;DHT22;1945;52.036;8.614;2023-01-10T00:05:39;6.80;99.90
3860;DHT22;1945;52.036;8.614;2023-01-10T00:08:08;6.80;99.90
3860;DHT22;1945;52.036;8.614;2023-01-10T00:10:36;6.70;99.90
3860;DHT22;1945;52.036;8.614;2023-01-10T00:13:02;6.70;99.90
3860;DHT22;1945;52.036;8.614;2023-01-10T00:15:47;6.60;99.90
3860;DHT22;1945;52.036;8.614;2023-01-10T00:18:13;6.70;99.90
3860;DHT22;1945;52.036;8.614;2023-01-10T00:20:40;6.60;99.90
3860;DHT22;1945;52.036;8.614;2023-01-10T00:23:10;6.00;99.90
3860;DHT22;1945;52.036;8.614;2023-01-10T00:25:37;6.50;99.90
3860;DHT22;1945;52.036;8.614;2023-01-10T00:28:04;6.50;99.90
3860;DHT22;1945;52.036;8.614;2023-01-10T00:30:47;6.00;99.90
3860;DHT22;1945;52.036;8.614;2023-01-10T00:33:15;6.00;99.90
3860;DHT22;1945;52.036;8.614;2023-01-10T00:35:45;6.40;99.90
3860;DHT22;1945;52.036;8.614;2023-01-10T00:38:13;6.40;99.90
3860;DHT22;1945;52.036;8.614;2023-01-10T00:40:40;5.80;99.90
3860;DHT22;1945;52.036;8.614;2023-01-10T00:43:08;5.80;99.90
3860;DHT22;1945;52.036;8.614;2023-01-10T00:45:52;5.70;99.90
3860;DHT22;1945;52.036;8.614;2023-01-10T00:48:19;6.20;99.90
3860;DHT22;1945;52.036;8.614;2023-01-10T00:50:45;5.70;99.90
3860;DHT22;1945;52.036;8.614;2023-01-10T00:53:13;6.20;99.90
3860;DHT22;1945;52.036;8.614;2023-01-10T00:55:40;5.80;99.90
3860;DHT22;1945;52.036;8.614;2023-01-10T00:58:07;6.00;99.90
3860;DHT22;1945;52.036;8.614;2023-01-10T01:00:36;6.10;99.90
3860;DHT22;1945;52.036;8.614;2023-01-10T01:03:02;6.10;99.90
3860;DHT22;1945;52.036;8.614;2023-01-10T01:05:29;5.60;99.90
3860;DHT22;1945;52.036;8.614;2023-01-10T01:07:56;5.60;99.90
3860;DHT22;1945;52.036;8.614;2023-01-10T01:10:24;5.30;99.90
3860;DHT22;1945;52.036;8.614;2023-01-10T01:12:54;6.30;99.90
3860;DHT22;1945;52.036;8.614;2023-01-10T01:15:21;5.20;99.90
3860;DHT22;1945;52.036;8.614;2023-01-10T01:17:48;6.20;99.90
3860;DHT22;1945;52.036;8.614;2023-01-10T01:20:15;6.30;99.90
3860;DHT22;1945;52.036;8.614;2023-01-10T01:22:41;5.70;99.90
3860;DHT22;1945;52.036;8.614;2023-01-10T01:25:09;6.30;99.90
3860;DHT22;1945;52.036;8.614;2023-01-10T01:27:37;5.90;99.90
3860;DHT22;1945;52.036;8.614;2023-01-10T01:30:04;6.30;99.90
3860;DHT22;1945;52.036;8.614;2023-01-10T01:32:31;5.80;99.90
3860;DHT22;1945;52.036;8.614;2023-01-10T01:34:58;5.80;99.90
3860;DHT22;1945;52.036;8.614;2023-01-10T01:37:25;5.80;99.90
3860;DHT22;1945;52.036;8.614;2023-01-10T01:39:52;6.30;99.90
3860;DHT22;1945;52.036;8.614;2023-01-10T01:42:22;5.90;99.90
3860;DHT22;1945;52.036;8.614;2023-01-10T01:45:32;6.40;99.90
3860;DHT22;1945;52.036;8.614;2023-01-10T01:48:05;5.90;99.90
3860;DHT22;1945;52.036;8.614;2023-01-10T01:50:37;6.30;99.90
3860;DHT22;1945;52.036;8.614;2023-01-10T01:53:09;6.60;99.90
3860;DHT22;1945;52.036;8.614;2023-01-10T01:55:37;6.50;99.90
3860;DHT22;1945;52.036;8.614;2023-01-10T01:58:08;6.30;99.90
3860;DHT22;1945;52.036;8.614;2023-01-10T02:00:37;5.50;99.90
3860;DHT22;1945;52.036;8.614;2023-01-10T02:03:04;6.40;99.90
3860;DHT22;1945;52.036;8.614;2023-01-10T02:05:33;6.40;99.90
3860;DHT22;1945;52.036;8.614;2023-01-10T02:08:01;6.00;99.90
3860;DHT22;1945;52.036;8.614;2023-01-10T02:10:32;6.30;99.90
3860;DHT22;1945;52.036;8.614;2023-01-10T02:13:04;6.40;99.90
3860;DHT22;1945;52.036;8.614;2023-01-10T02:15:31;6.50;99.90
3860;DHT22;1945;52.036;8.614;2023-01-10T02:18:01;6.50;99.90
3860;DHT22;1945;52.036;8.614;2023-01-10T02:20:35;6.10;99.90
3860;DHT22;1945;52.036;8.614;2023-01-10T02:23:16;6.50;99.90
3860;DHT22;1945;52.036;8.614;2023-01-10T02:26:07;6.60;99.90
3860;DHT22;1945;52.036;8.614;2023-01-10T02:29:07;6.10;99.90
3860;DHT22;1945;52.036;8.614;2023-01-10T02:31:55;6.60;99.90
3860;DHT22;1945;52.036;8.614;2023-01-10T02:34:30;6.50;99.90
3860;DHT22;1945;52.036;8.614;2023-01-10T02:37:07;6.60;99.90
3860;DHT22;1945;52.036;8.614;2023-01-10T02:39:45;6.40;99.90
3860;DHT22;1945;52.036;8.614;2023-01-10T02:42:18;6.60;99.90
3860;DHT22;1945;52.036;8.614;2023-01-10T02:44:52;6.40;99.90
3860;DHT22;1945;52.036;8.614;2023-01-10T02:47:21;6.60;99.90
3860;DHT22;1945;52.036;8.614;2023-01-10T02:49:50;6.50;99.90
3860;DHT22;1945;52.036;8.614;2023-01-10T02:52:20;6.00;99.90
3860;DHT22;1945;52.036;8.614;2023-01-10T02:54:49;6.40;99.90
3860;DHT22;1945;52.036;8.614;2023-01-10T02:57:37;6.50;99.90
3860;DHT22;1945;52.036;8.614;2023-01-10T03:00:23;6.50;99.90
3860;DHT22;1945;52.036;8.614;2023-01-10T03:03:06;6.40;99.90
3860;DHT22;1945;52.036;8.614;2023-01-10T03:05:45;6.00;99.90
3860;DHT22;1945;52.036;8.614;2023-01-10T03:08:27;6.50;99.90
3860;DHT22;1945;52.036;8.614;2023-01-10T03:10:57;6.00;99.90
3860;DHT22;1945;52.036;8.614;2023-01-10T03:13:27;6.40;99.90
3860;DHT22;1945;52.036;8.614;2023-01-10T03:15:56;6.40;99.90
3860;DHT22;1945;52.036;8.614;2023-01-10T03:18:30;6.40;99.90
3860;DHT22;1945;52.036;8.614;2023-01-10T03:20:59;6.00;99.90
3860;DHT22;1945;52.036;8.614;2023-01-10T03:23:27;6.40;99.90
3860;DHT22;1945;52.036;8.614;2023-01-10T03:25:54;6.30;99.90
3860;DHT22;1945;52.036;8.614;2023-01-10T03:28:25;6.50;99.90
3860;DHT22;1945;52.036;8.614;2023-01-10T03:30:57;5.80;99.90
3860;DHT22;1945;52.036;8.614;2023-01-10T03:33:29;6.30;99.90
3860;DHT22;1945;52.036;8.614;2023-01-10T03:36:06;6.30;99.90
3860;DHT22;1945;52.036;8.614;2023-01-10T03:38:42;5.80;99.90
3860;DHT22;1945;52.036;8.614;2023-01-10T03:41:13;6.30;99.90
3860;DHT22;1945;52.036;8.614;2023-01-10T03:43:44;5.90;99.90
3860;DHT22;1945;52.036;8.614;2023-01-10T03:46:33;6.20;99.90
3860;DHT22;1945;52.036;8.614;2023-01-10T03:49:04;6.10;99.90
3860;DHT22;1945;52.036;8.614;2023-01-10T03:51:32;5.40;99.90
3860;DHT22;1945;52.036;8.614;2023-01-10T03:53:59;6.30;99.90
3860;DHT22;1945;52.036;8.614;2023-01-10T03:56:26;6.10;99.90
3860;DHT22;1945;52.036;8.614;2023-01-10T03:58:53;5.70;99.90
3860;DHT22;1945;52.036;8.614;2023-01-10T04:01:20;5.70;99.90
3860;DHT22;1945;52.036;8.614;2023-01-10T04:03:46;6.10;99.90
3860;DHT22;1945;52.036;8.614;2023-01-10T04:06:14;6.10;99.90
3860;DHT22;1945;52.036;8.614;2023-01-10T04:08:42;6.20;99.90
3860;DHT22;1945;52.036;8.614;2023-01-10T04:11:09;5.90;99.90
3860;DHT22;1945;52.036;8.614;2023-01-10T04:13:35;5.90;99.90
3860;DHT22;1945;52.036;8.614;2023-01-10T04:16:02;5.50;99.90
3860;DHT22;1945;52.036;8.614;2023-01-10T04:18:29;6.10;99.90
3860;DHT22;1945;52.036;8.614;2023-01-10T04:20:55;5.30;99.90
3860;DHT22;1945;52.036;8.614;2023-01-10T04:23:23;6.10;99.90
3860;DHT22;1945;52.036;8.614;2023-01-10T04:25:50;6.20;99.90
3860;DHT22;1945;52.036;8.614;2023-01-10T04:28:17;5.20;99.90
3860;DHT22;1945;52.036;8.614;2023-01-10T04:30:43;5.80;99.90
3860;DHT22;1945;52.036;8.614;2023-01-10T04:33:10;5.70;99.90
3860;DHT22;1945;52.036;8.614;2023-01-10T04:35:37;5.50;99.90
3860;DHT22;1945;52.036;8.614;2023-01-10T04:38:03;5.70;99.90
3860;DHT22;1945;52.036;8.614;2023-01-10T04:40:31;6.10;99.90
3860;DHT22;1945;52.036;8.614;2023-01-10T04:42:58;5.60;99.90
3860;DHT22;1945;52.036;8.614;2023-01-10T04:45:25;6.20;99.90
3860;DHT22;1945;52.036;8.614;2023-01-10T04:47:51;6.30;99.90
3860;DHT22;1945;52.036;8.614;2023-01-10T04:50:21;6.00;99.90
3860;DHT22;1945;52.036;8.614;2023-01-10T04:52:48;6.00;99.90
3860;DHT22;1945;52.036;8.614;2023-01-10T04:55:14;5.70;99.90
3860;DHT22;1945;52.036;8.614;2023-01-10T04:57:42;5.90;99.90
3860;DHT22;1945;52.036;8.614;2023-01-10T05:00:10;6.20;99.90
3860;DHT22;1945;52.036;8.614;2023-01-10T05:02:37;5.60;99.90
3860;DHT22;1945;52.036;8.614;2023-01-10T05:05:08;5.60;99.90
3860;DHT22;1945;52.036;8.614;2023-01-10T05:07:36;5.60;99.90
3860;DHT22;1945;52.036;8.614;2023-01-10T05:10:03;5.60;99.90
3860;DHT22;1945;52.036;8.614;2023-01-10T05:12:30;5.60;99.90
3860;DHT22;1945;52.036;8.614;2023-01-10T05:14:58;6.00;99.90
3860;DHT22;1945;52.036;8.614;2023-01-10T05:17:25;6.10;99.90
3860;DHT22;1945;52.036;8.614;2023-01-10T05:19:52;6.20;99.90
3860;DHT22;1945;52.036;8.614;2023-01-10T05:22:18;6.30;99.90
3860;DHT22;1945;52.036;8.614;2023-01-10T05:24:45;5.80;99.90
3860;DHT22;1945;52.036;8.614;2023-01-10T05:27:11;5.80;99.90
3860;DHT22;1945;52.036;8.614;2023-01-10T05:29:38;5.80;99.90
3860;DHT22;1945;52.036;8.614;2023-01-10T05:32:06;6.20;99.90
3860;DHT22;1945;52.036;8.614;2023-01-10T05:34:33;5.80;99.90
3860;DHT22;1945;52.036;8.614;2023-01-10T05:36:59;6.00;99.90
3860;DHT22;1945;52.036;8.614;2023-01-10T05:39:26;6.30;99.90
3860;DHT22;1945;52.036;8.614;2023-01-10T05:41:53;6.30;99.90
3860;DHT22;1945;52.036;8.614;2023-01-10T05:44:19;6.00;99.90
3860;DHT22;1945;52.036;8.614;2023-01-10T05:46:46;5.70;99.90
3860;DHT22;1945;52.036;8.614;2023-01-10T05:49:14;5.70;99.90
3860;DHT22;1945;52.036;8.614;2023-01-10T05:51:40;6.10;99.90
3860;DHT22;1945;52.036;8.614;2023-01-10T05:54:07;6.10;99.90
3860;DHT22;1945;52.036;8.614;2023-01-10T05:56:34;5.70;99.90
3860;DHT22;1945;52.036;8.614;2023-01-10T05:59:01;6.10;99.90
3860;DHT22;1945;52.036;8.614;2023-01-10T06:01:27;6.20;99.90
3860;DHT22;1945;52.036;8.614;2023-01-10T06:03:54;6.00;99.90
3860;DHT22;1945;52.036;8.614;2023-01-10T06:06:22;6.00;99.90
3860;DHT22;1945;52.036;8.614;2023-01-10T06:08:48;6.00;99.90
3860;DHT22;1945;52.036;8.614;2023-01-10T06:11:15;5.70;99.90
3860;DHT22;1945;52.036;8.614;2023-01-10T06:13:42;5.40;99.90
3860;DHT22;1945;52.036;8.614;2023-01-10T06:16:08;5.60;99.90
3860;DHT22;1945;52.036;8.614;2023-01-10T06:18:35;6.00;99.90
3860;DHT22;1945;52.036;8.614;2023-01-10T06:21:02;6.10;99.90
3860;DHT22;1945;52.036;8.614;2023-01-10T06:23:30;5.60;99.90
3860;DHT22;1945;52.036;8.614;2023-01-10T06:25:57;6.10;99.90
3860;DHT22;1945;52.036;8.614;2023-01-10T06:28:24;5.60;99.90
3860;DHT22;1945;52.036;8.614;2023-01-10T06:30:50;6.10;99.90
3860;DHT22;1945;52.036;8.614;2023-01-10T06:33:17;6.10;99.90
3860;DHT22;1945;52.036;8.614;2023-01-10T06:35:44;6.20;99.90
3860;DHT22;1945;52.036;8.614;2023-01-10T06:38:12;6.00;99.90
3860;DHT22;1945;52.036;8.614;2023-01-10T06:40:40;6.20;99.90
3860;DHT22;1945;52.036;8.614;2023-01-10T06:43:07;6.10;99.90
3860;DHT22;1945;52.036;8.614;2023-01-10T06:45:34;5.70;99.90
3860;DHT22;1945;52.036;8.614;2023-01-10T06:48:01;6.30;99.90
3860;DHT22;1945;52.036;8.614;2023-01-10T06:50:27;5.70;99.90
3860;DHT22;1945;52.036;8.614;2023-01-10T06:52:55;6.10;99.90
3860;DHT22;1945;52.036;8.614;2023-01-10T06:55:26;5.70;99.90
3860;DHT22;1945;52.036;8.614;2023-01-10T06:58:00;5.70;99.90
3860;DHT22;1945;52.036;8.614;2023-01-10T07:00:28;5.30;99.90
3860;DHT22;1945;52.036;8.614;2023-01-10T07:02:57;6.10;99.90
3860;DHT22;1945;52.036;8.614;2023-01-10T07:05:24;6.20;99.90
3860;DHT22;1945;52.036;8.614;2023-01-10T07:07:50;6.30;99.90
3860;DHT22;1945;52.036;8.614;2023-01-10T07:10:17;6.30;99.90
3860;DHT22;1945;52.036;8.614;2023-01-10T07:12:44;6.40;99.90
3860;DHT22;1945;52.036;8.614;2023-01-10T07:15:12;5.20;99.90
3860;DHT22;1945;52.036;8.614;2023-01-10T07:17:39;5.70;99.90
3860;DHT22;1945;52.036;8.614;2023-01-10T07:20:06;6.20;99.90
3860;DHT22;1945;52.036;8.614;2023-01-10T07:22:33;5.80;99.90
3860;DHT22;1945;52.036;8.614;2023-01-10T07:25:00;5.80;99.90
3860;DHT22;1945;52.036;8.614;2023-01-10T07:27:29;5.80;99.90
3860;DHT22;1945;52.036;8.614;2023-01-10T07:29:56;6.30;99.90
3860;DHT22;1945;52.036;8.614;2023-01-10T07:32:24;6.20;99.90
3860;DHT22;1945;52.036;8.614;2023-01-10T07:34:51;6.40;99.90
3860;DHT22;1945;52.036;8.614;2023-01-10T07:37:18;5.90;99.90
3860;DHT22;1945;52.036;8.614;2023-01-10T07:39:44;6.20;99.90
3860;DHT22;1945;52.036;8.614;2023-01-10T07:42:11;5.90;99.90
3860;DHT22;1945;52.036;8.614;2023-01-10T07:44:38;5.90;99.90
3860;DHT22;1945;52.036;8.614;2023-01-10T07:47:04;6.30;99.90
3860;DHT22;1945;52.036;8.614;2023-01-10T07:49:32;6.50;99.90
3860;DHT22;1945;52.036;8.614;2023-01-10T07:51:59;6.30;99.90
3860;DHT22;1945;52.036;8.614;2023-01-10T07:54:26;6.30;99.90
3860;DHT22;1945;52.036;8.614;2023-01-10T07:56:52;6.40;99.90
3860;DHT22;1945;52.036;8.614;2023-01-10T07:59:19;6.40;99.90
3860;DHT22;1945;52.036;8.614;2023-01-10T08:01:45;5.40;99.90
3860;DHT22;1945;52.036;8.614;2023-01-10T08:04:13;5.60;99.90
3860;DHT22;1945;52.036;8.614;2023-01-10T08:06:41;5.80;99.90
3860;DHT22;1945;52.036;8.614;2023-01-10T08:09:07;6.30;99.90
3860;DHT22;1945;52.036;8.614;2023-01-10T08:11:34;5.80;99.90
3860;DHT22;1945;52.036;8.614;2023-01-10T08:14:01;6.00;99.90
3860;DHT22;1945;52.036;8.614;2023-01-10T08:16:28;6.40;98.30
3860;DHT22;1945;52.036;8.614;2023-01-10T08:18:54;6.10;96.60
3860;DHT22;1945;52.036;8.614;2023-01-10T08:21:21;6.50;99.30
3860;DHT22;1945;52.036;8.614;2023-01-10T08:23:49;6.50;98.50
3860;DHT22;1945;52.036;8.614;2023-01-10T08:26:16;6.30;99.90
3860;DHT22;1945;52.036;8.614;2023-01-10T08:28:43;6.00;99.90
3860;DHT22;1945;52.036;8.614;2023-01-10T08:31:10;6.00;99.90
3860;DHT22;1945;52.036;8.614;2023-01-10T08:33:37;6.50;67.50
3860;DHT22;1945;52.036;8.614;2023-01-10T08:36:04;6.00;34.10
3860;DHT22;1945;52.036;8.614;2023-01-10T08:38:31;6.10;21.90
3860;DHT22;1945;52.036;8.614;2023-01-10T08:40:59;6.50;11.80
3860;DHT22;1945;52.036;8.614;2023-01-10T08:43:26;6.50;5.90
3860;DHT22;1945;52.036;8.614;2023-01-10T08:45:52;6.10;1.00
3860;DHT22;1945;52.036;8.614;2023-01-10T08:48:19;6.50;1.00
3860;DHT22;1945;52.036;8.614;2023-01-10T08:50:48;6.60;1.00
3860;DHT22;1945;52.036;8.614;2023-01-10T08:53:15;6.40;1.00
3860;DHT22;1945;52.036;8.614;2023-01-10T08:55:41;6.50;1.00
3860;DHT22;1945;52.036;8.614;2023-01-10T08:58:10;6.00;1.00
3860;DHT22;1945;52.036;8.614;2023-01-10T09:00:36;6.50;1.00
3860;DHT22;1945;52.036;8.614;2023-01-10T09:03:04;6.00;1.00
3860;DHT22;1945;52.036;8.614;2023-01-10T09:05:31;6.10;11.00
3860;DHT22;1945;52.036;8.614;2023-01-10T09:07:59;5.70;1.00
3860;DHT22;1945;52.036;8.614;2023-01-10T09:10:27;6.60;1.00
3860;DHT22;1945;52.036;8.614;2023-01-10T09:12:54;6.30;1.00
3860;DHT22;1945;52.036;8.614;2023-01-10T09:15:23;6.60;1.00
3860;DHT22;1945;52.036;8.614;2023-01-10T09:17:52;6.40;1.00
3860;DHT22;1945;52.036;8.614;2023-01-10T09:20:19;6.30;1.00
3860;DHT22;1945;52.036;8.614;2023-01-10T09:22:46;6.70;1.00
3860;DHT22;1945;52.036;8.614;2023-01-10T09:25:13;6.40;1.00
3860;DHT22;1945;52.036;8.614;2023-01-10T09:27:39;6.30;1.00
3860;DHT22;1945;52.036;8.614;2023-01-10T09:30:07;5.90;1.00
3860;DHT22;1945;52.036;8.614;2023-01-10T09:32:35;6.40;1.00
3860;DHT22;1945;52.036;8.614;2023-01-10T09:35:03;7.00;1.00
3860;DHT22;1945;52.036;8.614;2023-01-10T09:37:30;6.40;1.00
3860;DHT22;1945;52.036;8.614;2023-01-10T09:39:58;6.70;1.00
3860;DHT22;1945;52.036;8.614;2023-01-10T09:42:35;6.90;1.00
3860;DHT22;1945;52.036;8.614;2023-01-10T09:45:12;6.60;1.00
3860;DHT22;1945;52.036;8.614;2023-01-10T09:47:47;7.10;1.00
3860;DHT22;1945;52.036;8.614;2023-01-10T09:50:23;6.60;1.00
3860;DHT22;1945;52.036;8.614;2023-01-10T09:52:57;6.80;1.00
3860;DHT22;1945;52.036;8.614;2023-01-10T09:55:30;6.90;1.00
3860;DHT22;1945;52.036;8.614;2023-01-10T09:57:59;7.20;1.00
3860;DHT22;1945;52.036;8.614;2023-01-10T10:00:35;6.40;1.00
3860;DHT22;1945;52.036;8.614;2023-01-10T10:03:20;7.00;1.00
3860;DHT22;1945;52.036;8.614;2023-01-10T10:05:49;6.60;1.00
3860;DHT22;1945;52.036;8.614;2023-01-10T10:08:17;6.80;1.00
3860;DHT22;1945;52.036;8.614;2023-01-10T10:10:57;6.20;1.00
3860;DHT22;1945;52.036;8.614;2023-01-10T10:13:33;6.80;1.00
3860;DHT22;1945;52.036;8.614;2023-01-10T10:16:06;6.60;1.00
3860;DHT22;1945;52.036;8.614;2023-01-10T10:18:42;6.90;1.00
3860;DHT22;1945;52.036;8.614;2023-01-10T10:21:18;7.30;1.00
3860;DHT22;1945;52.036;8.614;2023-01-10T10:24:01;6.90;1.00
3860;DHT22;1945;52.036;8.614;2023-01-10T10:26:33;6.90;1.00
3860;DHT22;1945;52.036;8.614;2023-01-10T10:32:26;6.70;1.00
3860;DHT22;1945;52.036;8.614;2023-01-10T10:34:59;7.40;1.00
3860;DHT22;1945;52.036;8.614;2023-01-10T10:37:30;6.90;1.00
3860;DHT22;1945;52.036;8.614;2023-01-10T10:40:01;6.40;1.00
3860;DHT22;1945;52.036;8.614;2023-01-10T10:42:32;6.90;1.00
3860;DHT22;1945;52.036;8.614;2023-01-10T10:45:02;6.60;1.00
3860;DHT22;1945;52.036;8.614;2023-01-10T10:47:32;6.90;1.00
3860;DHT22;1945;52.036;8.614;2023-01-10T10:50:07;7.40;1.00
3860;DHT22;1945;52.036;8.614;2023-01-10T10:52:42;6.80;1.00
3860;DHT22;1945;52.036;8.614;2023-01-10T10:55:13;6.90;1.00
3860;DHT22;1945;52.036;8.614;2023-01-10T10:57:41;7.10;1.00
3860;DHT22;1945;52.036;8.614;2023-01-10T11:00:14;7.30;1.00
3860;DHT22;1945;52.036;8.614;2023-01-10T11:02:45;7.30;1.00
3860;DHT22;1945;52.036;8.614;2023-01-10T11:05:19;6.90;1.00
3860;DHT22;1945;52.036;8.614;2023-01-10T11:07:46;7.00;1.00
3860;DHT22;1945;52.036;8.614;2023-01-10T11:10:17;7.00;1.00
3860;DHT22;1945;52.036;8.614;2023-01-10T11:13:07;7.00;99.90
3860;DHT22;1945;52.036;8.614;2023-01-10T11:15:40;7.30;99.90
3860;DHT22;1945;52.036;8.614;2023-01-10T11:18:11;7.20;99.90
3860;DHT22;1945;52.036;8.614;2023-01-10T11:20:46;7.30;1.00
3860;DHT22;1945;52.036;8.614;2023-01-10T11:23:22;7.40;1.00
3860;DHT22;1945;52.036;8.614;2023-01-10T11:25:49;7.00;1.00
3860;DHT22;1945;52.036;8.614;2023-01-10T11:28:19;7.00;1.00
3860;DHT22;1945;52.036;8.614;2023-01-10T11:30:49;7.60;99.90
3860;DHT22;1945;52.036;8.614;2023-01-10T11:33:20;6.80;99.90
3860;DHT22;1945;52.036;8.614;2023-01-10T11:36:01;7.30;99.90
3860;DHT22;1945;52.036;8.614;2023-01-10T11:38:28;6.90;99.90
3860;DHT22;1945;52.036;8.614;2023-01-10T11:40:58;7.30;99.90
3860;DHT22;1945;52.036;8.614;2023-01-10T11:43:28;6.90;99.90
3860;DHT22;1945;52.036;8.614;2023-01-10T11:45:57;7.60;99.90
3860;DHT22;1945;52.036;8.614;2023-01-10T11:48:33;6.70;99.90
3860;DHT22;1945;52.036;8.614;2023-01-10T11:51:18;7.40;99.90
3860;DHT22;1945;52.036;8.614;2023-01-10T11:53:48;6.70;99.90
3860;DHT22;1945;52.036;8.614;2023-01-10T11:56:25;7.40;99.90
3860;DHT22;1945;52.036;8.614;2023-01-10T11:58:53;7.10;99.90
3860;DHT22;1945;52.036;8.614;2023-01-10T12:01:28;7.30;99.90
3860;DHT22;1945;52.036;8.614;2023-01-10T12:03:56;7.50;99.90
3860;DHT22;1945;52.036;8.614;2023-01-10T12:06:25;7.20;99.90
3860;DHT22;1945;52.036;8.614;2023-01-10T12:08:53;7.30;99.90
3860;DHT22;1945;52.036;8.614;2023-01-10T12:11:27;7.40;99.90
3860;DHT22;1945;52.036;8.614;2023-01-10T12:13:56;7.80;99.90
3860;DHT22;1945;52.036;8.614;2023-01-10T12:16:27;7.80;99.90
3860;DHT22;1945;52.036;8.614;2023-01-10T12:18:56;7.10;99.90
3860;DHT22;1945;52.036;8.614;2023-01-10T12:21:30;7.50;99.90
3860;DHT22;1945;52.036;8.614;2023-01-10T12:24:01;7.90;75.30
3860;DHT22;1945;52.036;8.614;2023-01-10T12:26:31;7.60;96.40
3860;DHT22;1945;52.036;8.614;2023-01-10T12:29:04;8.00;99.90
3860;DHT22;1945;52.036;8.614;2023-01-10T12:31:34;8.10;71.40
3860;DHT22;1945;52.036;8.614;2023-01-10T12:34:09;7.10;1.00
3860;DHT22;1945;52.036;8.614;2023-01-10T12:36:48;7.80;1.00
3860;DHT22;1945;52.036;8.614;2023-01-10T12:39:20;7.20;1.00
3860;DHT22;1945;52.036;8.614;2023-01-10T12:41:54;7.60;1.00
3860;DHT22;1945;52.036;8.614;2023-01-10T12:44:42;7.20;1.00
3860;DHT22;1945;52.036;8.614;2023-01-10T12:47:16;7.50;10.20
3860;DHT22;1945;52.036;8.614;2023-01-10T12:49:49;6.90;1.00
3860;DHT22;1945;52.036;8.614;2023-01-10T12:52:26;7.40;1.00
3860;DHT22;1945;52.036;8.614;2023-01-10T12:54:54;7.00;1.00
3860;DHT22;1945;52.036;8.614;2023-01-10T12:57:27;7.80;1.00
3860;DHT22;1945;52.036;8.614;2023-01-10T12:59:56;7.50;1.00
3860;DHT22;1945;52.036;8.614;2023-01-10T13:02:26;7.50;1.00
3860;DHT22;1945;52.036;8.614;2023-01-10T13:04:57;7.00;1.00
3860;DHT22;1945;52.036;8.614;2023-01-10T13:07:31;7.90;1.00
3860;DHT22;1945;52.036;8.614;2023-01-10T13:10:00;7.00;1.00
3860;DHT22;1945;52.036;8.614;2023-01-10T13:12:31;7.50;1.00
3860;DHT22;1945;52.036;8.614;2023-01-10T13:15:03;7.40;1.00
3860;DHT22;1945;52.036;8.614;2023-01-10T13:17:38;7.20;1.00
3860;DHT22;1945;52.036;8.614;2023-01-10T13:20:27;7.40;1.00
3860;DHT22;1945;52.036;8.614;2023-01-10T13:22:57;7.90;1.00
3860;DHT22;1945;52.036;8.614;2023-01-10T13:25:26;7.30;1.00
3860;DHT22;1945;52.036;8.614;2023-01-10T13:27:57;7.80;1.00
3860;DHT22;1945;52.036;8.614;2023-01-10T13:30:30;7.90;1.00
3860;DHT22;1945;52.036;8.614;2023-01-10T13:33:02;7.20;1.00
3860;DHT22;1945;52.036;8.614;2023-01-10T13:35:37;7.20;1.00
3860;DHT22;1945;52.036;8.614;2023-01-10T13:38:16;7.20;1.00
3860;DHT22;1945;52.036;8.614;2023-01-10T13:40:56;7.10;1.00
3860;DHT22;1945;52.036;8.614;2023-01-10T13:43:37;7.80;1.00
3860;DHT22;1945;52.036;8.614;2023-01-10T13:46:33;7.50;1.00
3860;DHT22;1945;52.036;8.614;2023-01-10T13:52:38;7.40;1.00
3860;DHT22;1945;52.036;8.614;2023-01-10T13:55:31;7.40;1.00
3860;DHT22;1945;52.036;8.614;2023-01-10T13:58:02;7.50;1.00
3860;DHT22;1945;52.036;8.614;2023-01-10T14:00:54;7.80;1.00
3860;DHT22;1945;52.036;8.614;2023-01-10T14:03:51;6.90;1.00
3860;DHT22;1945;52.036;8.614;2023-01-10T14:06:34;7.30;1.00
3860;DHT22;1945;52.036;8.614;2023-01-10T14:09:30;7.40;1.00
3860;DHT22;1945;52.036;8.614;2023-01-10T14:12:01;7.60;1.00
3860;DHT22;1945;52.036;8.614;2023-01-10T14:14:31;7.40;1.00
3860;DHT22;1945;52.036;8.614;2023-01-10T14:17:11;7.70;1.00
3860;DHT22;1945;52.036;8.614;2023-01-10T14:19:40;7.50;1.00
3860;DHT22;1945;52.036;8.614;2023-01-10T14:22:22;7.30;1.00
3860;DHT22;1945;52.036;8.614;2023-01-10T14:24:51;7.70;1.00
3860;DHT22;1945;52.036;8.614;2023-01-10T14:27:20;6.80;1.00
3860;DHT22;1945;52.036;8.614;2023-01-10T14:29:50;7.20;1.00
3860;DHT22;1945;52.036;8.614;2023-01-10T14:32:27;6.90;1.00
3860;DHT22;1945;52.036;8.614;2023-01-10T14:34:55;7.70;1.00
3860;DHT22;1945;52.036;8.614;2023-01-10T14:37:26;7.30;1.00
3860;DHT22;1945;52.036;8.614;2023-01-10T14:39:57;7.70;1.00
3860;DHT22;1945;52.036;8.614;2023-01-10T14:42:27;7.20;1.00
3860;DHT22;1945;52.036;8.614;2023-01-10T14:44:58;7.20;1.00
3860;DHT22;1945;52.036;8.614;2023-01-10T14:47:29;7.20;1.00
3860;DHT22;1945;52.036;8.614;2023-01-10T14:49:56;7.00;1.00
3860;DHT22;1945;52.036;8.614;2023-01-10T14:52:25;6.90;1.00
3860;DHT22;1945;52.036;8.614;2023-01-10T14:55:02;7.10;1.00
3860;DHT22;1945;52.036;8.614;2023-01-10T14:57:30;7.50;1.00
3860;DHT22;1945;52.036;8.614;2023-01-10T15:00:03;7.00;1.00
3860;DHT22;1945;52.036;8.614;2023-01-10T15:02:30;7.10;1.00
3860;DHT22;1945;52.036;8.614;2023-01-10T15:04:59;7.20;1.00
3860;DHT22;1945;52.036;8.614;2023-01-10T15:07:27;7.40;1.00
3860;DHT22;1945;52.036;8.614;2023-01-10T15:09:55;7.10;1.00
3860;DHT22;1945;52.036;8.614;2023-01-10T15:12:27;7.00;1.00
3860;DHT22;1945;52.036;8.614;2023-01-10T15:15:02;7.00;1.00
3860;DHT22;1945;52.036;8.614;2023-01-10T15:17:30;6.90;1.00
3860;DHT22;1945;52.036;8.614;2023-01-10T15:19:57;6.90;1.00
3860;DHT22;1945;52.036;8.614;2023-01-10T15:22:28;6.90;1.00
3860;DHT22;1945;52.036;8.614;2023-01-10T15:24:59;6.90;1.00
3860;DHT22;1945;52.036;8.614;2023-01-10T15:27:26;7.40;1.00
3860;DHT22;1945;52.036;8.614;2023-01-10T15:29:53;6.90;1.00
3860;DHT22;1945;52.036;8.614;2023-01-10T15:32:27;7.40;1.00
3860;DHT22;1945;52.036;8.614;2023-01-10T15:34:56;7.30;1.00
3860;DHT22;1945;52.036;8.614;2023-01-10T15:37:26;6.90;1.00
3860;DHT22;1945;52.036;8.614;2023-01-10T15:39:58;6.90;1.00
3860;DHT22;1945;52.036;8.614;2023-01-10T15:42:25;7.40;1.00
3860;DHT22;1945;52.036;8.614;2023-01-10T15:44:53;6.80;1.00
3860;DHT22;1945;52.036;8.614;2023-01-10T15:47:48;7.20;1.00
3860;DHT22;1945;52.036;8.614;2023-01-10T15:50:19;7.20;1.00
3860;DHT22;1945;52.036;8.614;2023-01-10T15:52:47;7.30;1.00
3860;DHT22;1945;52.036;8.614;2023-01-10T15:55:41;7.10;1.00
3860;DHT22;1945;52.036;8.614;2023-01-10T15:58:15;6.80;1.00
3860;DHT22;1945;52.036;8.614;2023-01-10T16:00:44;6.70;1.00
3860;DHT22;1945;52.036;8.614;2023-01-10T16:03:21;7.30;1.00
3860;DHT22;1945;52.036;8.614;2023-01-10T16:05:50;7.20;1.00
3860;DHT22;1945;52.036;8.614;2023-01-10T16:08:22;7.20;1.00
3860;DHT22;1945;52.036;8.614;2023-01-10T16:10:52;6.50;1.00
3860;DHT22;1945;52.036;8.614;2023-01-10T16:13:19;6.90;1.00
3860;DHT22;1945;52.036;8.614;2023-01-10T16:15:56;6.20;1.00
3860;DHT22;1945;52.036;8.614;2023-01-10T16:18:26;6.90;1.00
3860;DHT22;1945;52.036;8.614;2023-01-10T16:20:55;7.00;1.00
3860;DHT22;1945;52.036;8.614;2023-01-10T16:23:24;6.70;1.00
3860;DHT22;1945;52.036;8.614;2023-01-10T16:25:53;6.50;1.00
3860;DHT22;1945;52.036;8.614;2023-01-10T16:28:21;6.80;1.00
3860;DHT22;1945;52.036;8.614;2023-01-10T16:30:48;7.10;1.00
3860;DHT22;1945;52.036;8.614;2023-01-10T16:33:16;7.20;1.00
3860;DHT22;1945;52.036;8.614;2023-01-10T16:35:45;6.30;1.00
3860;DHT22;1945;52.036;8.614;2023-01-10T16:38:12;6.40;1.00
3860;DHT22;1945;52.036;8.614;2023-01-10T16:40:41;7.20;1.00
3860;DHT22;1945;52.036;8.614;2023-01-10T16:43:10;6.60;1.00
3860;DHT22;1945;52.036;8.614;2023-01-10T16:45:47;6.30;1.00
3860;DHT22;1945;52.036;8.614;2023-01-10T16:48:15;6.70;1.00
3860;DHT22;1945;52.036;8.614;2023-01-10T16:50:42;6.40;99.90
3860;DHT22;1945;52.036;8.614;2023-01-10T16:53:12;7.30;99.90